Caribou, Maine
Current Conditions -  °F | °C
As of 10:54 AM on Monday 26 Jan 2015 (Local Time) from KCAR Reporting Station
Clear Clear  
Wind Chill:   Ceiling: Unl
Heat Index:   Visibility: 10mi
Dew Point: -11°   Wind: 3mph
Humidity: 52%   Direction: NA
Pressure: 30.16"   Gusts: NA
Location:  46.86°N, 68.01°W
Report Text: KCAR 261554Z AUTO VRB03KT 10SM CLR M16/M24 A3016 RMK AO2 SLP234 T11611239
Loading
Personal Weather Stations






























Interactive Weather Map New forecast layout! Learn more

10-Day Weather Forecast

Advertisements
Track Severe Weather on mobile